sensor_id;sensor_type;location;lat;lon;timestamp;temperature;humidity
37426;DHT22;23285;50.180;7.036;2022-11-20T00:03:36;6.20;99.90
37426;DHT22;23285;50.180;7.036;2022-11-20T00:09:10;5.70;99.90
37426;DHT22;23285;50.180;7.036;2022-11-20T00:11:55;5.50;99.90
37426;DHT22;23285;50.180;7.036;2022-11-20T00:14:40;5.80;99.90
37426;DHT22;23285;50.180;7.036;2022-11-20T00:17:26;5.60;99.90
37426;DHT22;23285;50.180;7.036;2022-11-20T00:20:11;5.50;99.90
37426;DHT22;23285;50.180;7.036;2022-11-20T00:22:56;5.50;99.90
37426;DHT22;23285;50.180;7.036;2022-11-20T00:28:26;5.70;99.90
37426;DHT22;23285;50.180;7.036;2022-11-20T00:31:15;5.30;99.90
37426;DHT22;23285;50.180;7.036;2022-11-20T00:36:46;5.20;99.90
37426;DHT22;23285;50.180;7.036;2022-11-20T00:39:31;5.30;99.90
37426;DHT22;23285;50.180;7.036;2022-11-20T00:45:01;6.90;99.90
37426;DHT22;23285;50.180;7.036;2022-11-20T00:50:33;5.60;99.90
37426;DHT22;23285;50.180;7.036;2022-11-20T00:56:06;5.30;99.90
37426;DHT22;23285;50.180;7.036;2022-11-20T00:58:51;5.60;99.90
37426;DHT22;23285;50.180;7.036;2022-11-20T01:01:37;5.40;99.90
37426;DHT22;23285;50.180;7.036;2022-11-20T01:04:22;6.20;99.90
37426;DHT22;23285;50.180;7.036;2022-11-20T01:09:52;6.70;99.90
37426;DHT22;23285;50.180;7.036;2022-11-20T01:15:22;6.50;99.90
37426;DHT22;23285;50.180;7.036;2022-11-20T01:18:07;6.30;99.90
37426;DHT22;23285;50.180;7.036;2022-11-20T01:20:52;6.00;99.90
37426;DHT22;23285;50.180;7.036;2022-11-20T01:23:39;5.80;99.90
37426;DHT22;23285;50.180;7.036;2022-11-20T01:26:30;5.80;99.90
37426;DHT22;23285;50.180;7.036;2022-11-20T01:32:02;6.50;99.90
37426;DHT22;23285;50.180;7.036;2022-11-20T01:34:47;6.00;99.90
37426;DHT22;23285;50.180;7.036;2022-11-20T01:37:32;5.50;99.90
37426;DHT22;23285;50.180;7.036;2022-11-20T01:40:17;6.40;99.90
37426;DHT22;23285;50.180;7.036;2022-11-20T01:46:17;6.30;99.90
37426;DHT22;23285;50.180;7.036;2022-11-20T01:49:22;5.70;99.90
37426;DHT22;23285;50.180;7.036;2022-11-20T01:55:04;6.30;99.90
37426;DHT22;23285;50.180;7.036;2022-11-20T01:57:50;6.60;99.90
37426;DHT22;23285;50.180;7.036;2022-11-20T02:00:35;6.30;99.90
37426;DHT22;23285;50.180;7.036;2022-11-20T02:03:20;5.80;99.90
37426;DHT22;23285;50.180;7.036;2022-11-20T02:09:46;6.30;99.90
37426;DHT22;23285;50.180;7.036;2022-11-20T02:15:35;6.30;99.90
37426;DHT22;23285;50.180;7.036;2022-11-20T02:18:21;6.60;99.90
37426;DHT22;23285;50.180;7.036;2022-11-20T02:21:13;6.80;99.90
37426;DHT22;23285;50.180;7.036;2022-11-20T02:30:00;6.80;99.90
37426;DHT22;23285;50.180;7.036;2022-11-20T02:32:46;7.10;99.90
37426;DHT22;23285;50.180;7.036;2022-11-20T02:38:16;7.20;99.90
37426;DHT22;23285;50.180;7.036;2022-11-20T02:41:02;6.90;99.90
37426;DHT22;23285;50.180;7.036;2022-11-20T02:43:47;6.40;99.90
37426;DHT22;23285;50.180;7.036;2022-11-20T02:52:03;6.60;99.90
37426;DHT22;23285;50.180;7.036;2022-11-20T02:54:48;6.10;99.90
37426;DHT22;23285;50.180;7.036;2022-11-20T02:57:33;6.30;99.90
37426;DHT22;23285;50.180;7.036;2022-11-20T03:00:18;6.70;99.90
37426;DHT22;23285;50.180;7.036;2022-11-20T03:08:34;6.70;99.90
37426;DHT22;23285;50.180;7.036;2022-11-20T03:11:20;6.70;99.90
37426;DHT22;23285;50.180;7.036;2022-11-20T03:14:05;6.10;99.90
37426;DHT22;23285;50.180;7.036;2022-11-20T03:16:50;6.20;99.90
37426;DHT22;23285;50.180;7.036;2022-11-20T03:19:35;5.90;99.90
37426;DHT22;23285;50.180;7.036;2022-11-20T03:25:05;6.00;99.90
37426;DHT22;23285;50.180;7.036;2022-11-20T03:30:36;6.10;99.90
37426;DHT22;23285;50.180;7.036;2022-11-20T03:33:21;6.20;99.90
37426;DHT22;23285;50.180;7.036;2022-11-20T03:36:08;6.50;99.90
37426;DHT22;23285;50.180;7.036;2022-11-20T03:38:55;6.80;99.90
37426;DHT22;23285;50.180;7.036;2022-11-20T03:41:41;6.70;99.90
37426;DHT22;23285;50.180;7.036;2022-11-20T03:47:12;7.20;99.90
37426;DHT22;23285;50.180;7.036;2022-11-20T03:49:57;6.90;99.90
37426;DHT22;23285;50.180;7.036;2022-11-20T03:55:27;6.70;99.90
37426;DHT22;23285;50.180;7.036;2022-11-20T03:58:12;6.90;99.90
37426;DHT22;23285;50.180;7.036;2022-11-20T04:00:58;6.70;99.90
37426;DHT22;23285;50.180;7.036;2022-11-20T04:03:48;7.10;99.90
37426;DHT22;23285;50.180;7.036;2022-11-20T04:06:36;6.80;99.90
37426;DHT22;23285;50.180;7.036;2022-11-20T04:12:07;7.40;99.90
37426;DHT22;23285;50.180;7.036;2022-11-20T04:14:51;7.50;99.90
37426;DHT22;23285;50.180;7.036;2022-11-20T04:17:36;7.40;99.90
37426;DHT22;23285;50.180;7.036;2022-11-20T04:20:21;7.60;99.90
37426;DHT22;23285;50.180;7.036;2022-11-20T04:25:52;6.60;99.90
37426;DHT22;23285;50.180;7.036;2022-11-20T04:34:11;7.30;99.90
37426;DHT22;23285;50.180;7.036;2022-11-20T04:36:56;7.50;99.90
37426;DHT22;23285;50.180;7.036;2022-11-20T04:39:41;7.40;99.90
37426;DHT22;23285;50.180;7.036;2022-11-20T04:42:26;7.10;99.90
37426;DHT22;23285;50.180;7.036;2022-11-20T04:45:13;6.80;99.90
37426;DHT22;23285;50.180;7.036;2022-11-20T04:47:58;6.70;99.90
37426;DHT22;23285;50.180;7.036;2022-11-20T04:50:43;7.10;99.90
37426;DHT22;23285;50.180;7.036;2022-11-20T04:53:28;7.10;99.90
37426;DHT22;23285;50.180;7.036;2022-11-20T04:56:13;6.70;99.90
37426;DHT22;23285;50.180;7.036;2022-11-20T04:59:02;6.80;99.90
37426;DHT22;23285;50.180;7.036;2022-11-20T05:01:47;6.80;99.90
37426;DHT22;23285;50.180;7.036;2022-11-20T05:04:32;6.50;99.90
37426;DHT22;23285;50.180;7.036;2022-11-20T05:07:17;6.50;99.90
37426;DHT22;23285;50.180;7.036;2022-11-20T05:10:03;6.70;99.90
37426;DHT22;23285;50.180;7.036;2022-11-20T05:15:33;6.80;99.90
37426;DHT22;23285;50.180;7.036;2022-11-20T05:18:18;6.30;99.90
37426;DHT22;23285;50.180;7.036;2022-11-20T05:21:04;6.70;99.90
37426;DHT22;23285;50.180;7.036;2022-11-20T05:23:49;6.80;99.90
37426;DHT22;23285;50.180;7.036;2022-11-20T05:26:34;6.90;99.90
37426;DHT22;23285;50.180;7.036;2022-11-20T05:29:19;7.00;99.90
37426;DHT22;23285;50.180;7.036;2022-11-20T05:32:04;7.20;99.90
37426;DHT22;23285;50.180;7.036;2022-11-20T05:34:51;6.90;99.90
37426;DHT22;23285;50.180;7.036;2022-11-20T05:40:22;7.40;99.90
37426;DHT22;23285;50.180;7.036;2022-11-20T05:43:07;7.50;99.90
37426;DHT22;23285;50.180;7.036;2022-11-20T05:45:53;7.10;99.90
37426;DHT22;23285;50.180;7.036;2022-11-20T05:48:40;7.50;99.90
37426;DHT22;23285;50.180;7.036;2022-11-20T05:51:26;7.10;99.90
37426;DHT22;23285;50.180;7.036;2022-11-20T05:54:11;7.00;99.90
37426;DHT22;23285;50.180;7.036;2022-11-20T05:59:42;7.20;99.90
37426;DHT22;23285;50.180;7.036;2022-11-20T06:05:12;7.30;99.90
37426;DHT22;23285;50.180;7.036;2022-11-20T06:07:57;7.40;99.90
37426;DHT22;23285;50.180;7.036;2022-11-20T06:10:42;7.40;99.90
37426;DHT22;23285;50.180;7.036;2022-11-20T06:13:27;6.80;99.90
37426;DHT22;23285;50.180;7.036;2022-11-20T06:16:15;6.70;99.90
37426;DHT22;23285;50.180;7.036;2022-11-20T06:19:00;6.60;99.90
37426;DHT22;23285;50.180;7.036;2022-11-20T06:21:47;6.60;99.90
37426;DHT22;23285;50.180;7.036;2022-11-20T06:27:18;6.70;99.90
37426;DHT22;23285;50.180;7.036;2022-11-20T06:30:04;6.60;99.90
37426;DHT22;23285;50.180;7.036;2022-11-20T06:38:20;6.20;99.90
37426;DHT22;23285;50.180;7.036;2022-11-20T06:41:06;6.40;99.90
37426;DHT22;23285;50.180;7.036;2022-11-20T06:46:37;6.80;99.90
37426;DHT22;23285;50.180;7.036;2022-11-20T06:49:22;6.90;99.90
37426;DHT22;23285;50.180;7.036;2022-11-20T06:54:53;6.20;99.90
37426;DHT22;23285;50.180;7.036;2022-11-20T07:00:24;5.60;99.90
37426;DHT22;23285;50.180;7.036;2022-11-20T07:11:26;5.50;99.90
37426;DHT22;23285;50.180;7.036;2022-11-20T07:14:11;6.10;99.90
37426;DHT22;23285;50.180;7.036;2022-11-20T07:16:56;6.10;99.90
37426;DHT22;23285;50.180;7.036;2022-11-20T07:19:41;5.50;99.90
37426;DHT22;23285;50.180;7.036;2022-11-20T07:22:27;5.70;99.90
37426;DHT22;23285;50.180;7.036;2022-11-20T07:33:34;6.40;99.90
37426;DHT22;23285;50.180;7.036;2022-11-20T07:39:05;6.60;99.90
37426;DHT22;23285;50.180;7.036;2022-11-20T07:41:50;6.40;99.90
37426;DHT22;23285;50.180;7.036;2022-11-20T07:44:35;6.50;99.90
37426;DHT22;23285;50.180;7.036;2022-11-20T07:47:20;6.30;99.90
37426;DHT22;23285;50.180;7.036;2022-11-20T07:50:05;6.30;99.90
37426;DHT22;23285;50.180;7.036;2022-11-20T07:52:50;6.50;99.90
37426;DHT22;23285;50.180;7.036;2022-11-20T07:55:35;6.40;99.90
37426;DHT22;23285;50.180;7.036;2022-11-20T08:01:06;5.90;99.90
37426;DHT22;23285;50.180;7.036;2022-11-20T08:03:52;6.20;99.90
37426;DHT22;23285;50.180;7.036;2022-11-20T08:06:37;6.60;99.90
37426;DHT22;23285;50.180;7.036;2022-11-20T08:12:08;6.80;99.90
37426;DHT22;23285;50.180;7.036;2022-11-20T08:18:10;7.00;99.90
37426;DHT22;23285;50.180;7.036;2022-11-20T08:20:56;6.40;99.90
37426;DHT22;23285;50.180;7.036;2022-11-20T08:26:26;6.70;99.90
37426;DHT22;23285;50.180;7.036;2022-11-20T08:29:11;6.60;99.90
37426;DHT22;23285;50.180;7.036;2022-11-20T08:31:56;6.50;99.90
37426;DHT22;23285;50.180;7.036;2022-11-20T08:34:41;6.60;99.90
37426;DHT22;23285;50.180;7.036;2022-11-20T08:37:26;6.90;99.90
37426;DHT22;23285;50.180;7.036;2022-11-20T08:40:11;7.00;99.90
37426;DHT22;23285;50.180;7.036;2022-11-20T08:45:41;6.80;99.90
37426;DHT22;23285;50.180;7.036;2022-11-20T08:48:26;6.80;99.90
37426;DHT22;23285;50.180;7.036;2022-11-20T08:53:57;7.00;99.90
37426;DHT22;23285;50.180;7.036;2022-11-20T08:56:42;7.00;99.90
37426;DHT22;23285;50.180;7.036;2022-11-20T09:04:58;7.30;99.90
37426;DHT22;23285;50.180;7.036;2022-11-20T09:07:43;7.40;99.90
37426;DHT22;23285;50.180;7.036;2022-11-20T09:10:28;7.10;99.90
37426;DHT22;23285;50.180;7.036;2022-11-20T09:13:13;7.10;99.90
37426;DHT22;23285;50.180;7.036;2022-11-20T09:16:04;7.10;99.90
37426;DHT22;23285;50.180;7.036;2022-11-20T09:27:06;7.50;99.90
37426;DHT22;23285;50.180;7.036;2022-11-20T09:29:51;7.20;99.90
37426;DHT22;23285;50.180;7.036;2022-11-20T09:32:39;7.30;99.90
37426;DHT22;23285;50.180;7.036;2022-11-20T09:35:24;7.20;99.90
37426;DHT22;23285;50.180;7.036;2022-11-20T09:38:10;7.30;99.90
37426;DHT22;23285;50.180;7.036;2022-11-20T09:44:02;7.50;99.90
37426;DHT22;23285;50.180;7.036;2022-11-20T09:46:57;7.40;99.90
37426;DHT22;23285;50.180;7.036;2022-11-20T09:55:51;6.70;99.90
37426;DHT22;23285;50.180;7.036;2022-11-20T09:58:49;7.00;99.90
37426;DHT22;23285;50.180;7.036;2022-11-20T10:01:36;7.10;99.90
37426;DHT22;23285;50.180;7.036;2022-11-20T10:10:05;7.00;99.90
37426;DHT22;23285;50.180;7.036;2022-11-20T10:25:39;7.30;99.90
37426;DHT22;23285;50.180;7.036;2022-11-20T10:28:59;7.60;99.90
37426;DHT22;23285;50.180;7.036;2022-11-20T10:31:51;7.60;99.90
37426;DHT22;23285;50.180;7.036;2022-11-20T10:34:52;7.40;99.90
37426;DHT22;23285;50.180;7.036;2022-11-20T10:37:43;7.50;99.90
37426;DHT22;23285;50.180;7.036;2022-11-20T10:40:41;7.70;99.90
37426;DHT22;23285;50.180;7.036;2022-11-20T10:46:23;7.80;99.90
37426;DHT22;23285;50.180;7.036;2022-11-20T10:49:17;8.00;99.90
37426;DHT22;23285;50.180;7.036;2022-11-20T10:52:15;7.70;99.90
37426;DHT22;23285;50.180;7.036;2022-11-20T10:56:22;7.60;99.90
37426;DHT22;23285;50.180;7.036;2022-11-20T10:58:45;8.00;99.90
37426;DHT22;23285;50.180;7.036;2022-11-20T11:01:40;7.90;99.90
37426;DHT22;23285;50.180;7.036;2022-11-20T11:07:22;7.70;99.90
37426;DHT22;23285;50.180;7.036;2022-11-20T11:13:03;7.70;99.90
37426;DHT22;23285;50.180;7.036;2022-11-20T11:15:48;7.70;99.90
37426;DHT22;23285;50.180;7.036;2022-11-20T11:18:34;7.80;99.90
37426;DHT22;23285;50.180;7.036;2022-11-20T11:21:24;7.80;99.90
37426;DHT22;23285;50.180;7.036;2022-11-20T11:24:25;7.80;99.90
37426;DHT22;23285;50.180;7.036;2022-11-20T11:27:14;7.80;99.90
37426;DHT22;23285;50.180;7.036;2022-11-20T11:30:13;7.50;99.90
37426;DHT22;23285;50.180;7.036;2022-11-20T11:33:06;7.80;99.90
37426;DHT22;23285;50.180;7.036;2022-11-20T11:36:14;7.70;99.90
37426;DHT22;23285;50.180;7.036;2022-11-20T11:39:02;7.80;99.90
37426;DHT22;23285;50.180;7.036;2022-11-20T11:41:48;7.90;99.90
37426;DHT22;23285;50.180;7.036;2022-11-20T11:44:34;8.10;99.90
37426;DHT22;23285;50.180;7.036;2022-11-20T11:50:28;8.10;99.90
37426;DHT22;23285;50.180;7.036;2022-11-20T11:53:16;8.00;99.90
37426;DHT22;23285;50.180;7.036;2022-11-20T11:56:11;8.00;99.90
37426;DHT22;23285;50.180;7.036;2022-11-20T12:01:54;7.90;99.90
37426;DHT22;23285;50.180;7.036;2022-11-20T12:04:44;8.10;99.90
37426;DHT22;23285;50.180;7.036;2022-11-20T12:07:41;8.20;99.90
37426;DHT22;23285;50.180;7.036;2022-11-20T12:13:37;8.30;99.90
37426;DHT22;23285;50.180;7.036;2022-11-20T12:16:24;8.30;99.90
37426;DHT22;23285;50.180;7.036;2022-11-20T12:19:13;8.10;99.90
37426;DHT22;23285;50.180;7.036;2022-11-20T12:25:17;8.10;99.90
37426;DHT22;23285;50.180;7.036;2022-11-20T12:31:25;8.20;99.90
37426;DHT22;23285;50.180;7.036;2022-11-20T12:43:25;8.20;99.90
37426;DHT22;23285;50.180;7.036;2022-11-20T12:46:53;8.10;99.90
37426;DHT22;23285;50.180;7.036;2022-11-20T12:49:56;8.20;99.90
37426;DHT22;23285;50.180;7.036;2022-11-20T13:01:49;8.10;99.90
37426;DHT22;23285;50.180;7.036;2022-11-20T13:07:21;7.80;99.90
37426;DHT22;23285;50.180;7.036;2022-11-20T13:13:32;8.10;99.90
37426;DHT22;23285;50.180;7.036;2022-11-20T13:19:29;8.20;99.90
37426;DHT22;23285;50.180;7.036;2022-11-20T13:22:27;8.20;99.90
37426;DHT22;23285;50.180;7.036;2022-11-20T13:33:44;7.80;99.90
37426;DHT22;23285;50.180;7.036;2022-11-20T13:36:30;8.10;99.90
37426;DHT22;23285;50.180;7.036;2022-11-20T13:39:36;7.80;99.90
37426;DHT22;23285;50.180;7.036;2022-11-20T13:42:26;7.70;99.90
37426;DHT22;23285;50.180;7.036;2022-11-20T13:45:27;7.50;99.90
37426;DHT22;23285;50.180;7.036;2022-11-20T13:48:21;7.70;99.90
37426;DHT22;23285;50.180;7.036;2022-11-20T14:00:19;8.00;99.90
37426;DHT22;23285;50.180;7.036;2022-11-20T14:03:21;7.80;99.90
37426;DHT22;23285;50.180;7.036;2022-11-20T14:06:28;7.60;99.90
37426;DHT22;23285;50.180;7.036;2022-11-20T14:09:28;7.60;99.90
37426;DHT22;23285;50.180;7.036;2022-11-20T14:12:19;7.50;99.90
37426;DHT22;23285;50.180;7.036;2022-11-20T14:15:04;7.70;99.90
37426;DHT22;23285;50.180;7.036;2022-11-20T14:17:49;7.70;99.90
37426;DHT22;23285;50.180;7.036;2022-11-20T14:23:27;7.80;99.90
37426;DHT22;23285;50.180;7.036;2022-11-20T14:26:17;7.70;99.90
37426;DHT22;23285;50.180;7.036;2022-11-20T14:29:05;7.70;99.90
37426;DHT22;23285;50.180;7.036;2022-11-20T14:31:54;7.70;99.90
37426;DHT22;23285;50.180;7.036;2022-11-20T14:34:41;7.50;99.90
37426;DHT22;23285;50.180;7.036;2022-11-20T14:37:32;7.70;99.90
37426;DHT22;23285;50.180;7.036;2022-11-20T14:46:13;7.40;99.90
37426;DHT22;23285;50.180;7.036;2022-11-20T14:49:01;7.40;99.90
37426;DHT22;23285;50.180;7.036;2022-11-20T14:51:46;7.60;99.90
37426;DHT22;23285;50.180;7.036;2022-11-20T14:54:49;7.30;99.90
37426;DHT22;23285;50.180;7.036;2022-11-20T14:57:35;7.50;99.90
37426;DHT22;23285;50.180;7.036;2022-11-20T15:00:21;7.30;99.90
37426;DHT22;23285;50.180;7.036;2022-11-20T15:03:15;7.50;99.90
37426;DHT22;23285;50.180;7.036;2022-11-20T15:06:00;7.40;99.90
37426;DHT22;23285;50.180;7.036;2022-11-20T15:08:53;7.60;99.90
37426;DHT22;23285;50.180;7.036;2022-11-20T15:14:24;7.60;99.90
37426;DHT22;23285;50.180;7.036;2022-11-20T15:17:11;7.40;99.90
37426;DHT22;23285;50.180;7.036;2022-11-20T15:22:42;7.40;99.90
37426;DHT22;23285;50.180;7.036;2022-11-20T15:25:27;7.20;99.90
37426;DHT22;23285;50.180;7.036;2022-11-20T15:33:49;7.00;99.90
37426;DHT22;23285;50.180;7.036;2022-11-20T15:36:34;7.00;99.90
37426;DHT22;23285;50.180;7.036;2022-11-20T15:39:19;7.00;99.90
37426;DHT22;23285;50.180;7.036;2022-11-20T15:42:04;7.20;99.90
37426;DHT22;23285;50.180;7.036;2022-11-20T15:44:49;7.20;99.90
37426;DHT22;23285;50.180;7.036;2022-11-20T15:47:35;6.80;99.90
37426;DHT22;23285;50.180;7.036;2022-11-20T15:50:20;7.20;99.90
37426;DHT22;23285;50.180;7.036;2022-11-20T15:53:08;7.20;99.90
37426;DHT22;23285;50.180;7.036;2022-11-20T15:55:54;7.40;99.90
37426;DHT22;23285;50.180;7.036;2022-11-20T15:58:39;7.50;99.90
37426;DHT22;23285;50.180;7.036;2022-11-20T16:07:00;7.10;99.90
37426;DHT22;23285;50.180;7.036;2022-11-20T16:09:45;7.00;99.90
37426;DHT22;23285;50.180;7.036;2022-11-20T16:15:34;6.90;99.90
37426;DHT22;23285;50.180;7.036;2022-11-20T16:18:31;6.80;99.90
37426;DHT22;23285;50.180;7.036;2022-11-20T16:21:16;6.70;99.90
37426;DHT22;23285;50.180;7.036;2022-11-20T16:24:04;6.60;99.90
37426;DHT22;23285;50.180;7.036;2022-11-20T16:26:49;6.80;99.90
37426;DHT22;23285;50.180;7.036;2022-11-20T16:32:20;6.40;99.90
37426;DHT22;23285;50.180;7.036;2022-11-20T16:35:05;6.40;99.90
37426;DHT22;23285;50.180;7.036;2022-11-20T16:37:52;6.30;99.90
37426;DHT22;23285;50.180;7.036;2022-11-20T16:40:37;6.40;99.90
37426;DHT22;23285;50.180;7.036;2022-11-20T16:43:22;6.50;99.90
37426;DHT22;23285;50.180;7.036;2022-11-20T16:51:41;6.50;99.90
37426;DHT22;23285;50.180;7.036;2022-11-20T16:54:26;6.60;99.90
37426;DHT22;23285;50.180;7.036;2022-11-20T16:57:11;6.50;99.90
37426;DHT22;23285;50.180;7.036;2022-11-20T17:05:29;6.10;99.90
37426;DHT22;23285;50.180;7.036;2022-11-20T17:11:05;5.90;99.90
37426;DHT22;23285;50.180;7.036;2022-11-20T17:13:50;6.10;99.90
37426;DHT22;23285;50.180;7.036;2022-11-20T17:16:36;6.30;99.90
37426;DHT22;23285;50.180;7.036;2022-11-20T17:19:21;6.10;99.90
37426;DHT22;23285;50.180;7.036;2022-11-20T17:22:06;6.00;99.90
37426;DHT22;23285;50.180;7.036;2022-11-20T17:24:51;6.00;99.90
37426;DHT22;23285;50.180;7.036;2022-11-20T17:30:22;6.20;99.90
37426;DHT22;23285;50.180;7.036;2022-11-20T17:33:07;6.30;99.90
37426;DHT22;23285;50.180;7.036;2022-11-20T17:35:52;6.20;99.90
37426;DHT22;23285;50.180;7.036;2022-11-20T17:38:37;6.10;99.90
37426;DHT22;23285;50.180;7.036;2022-11-20T17:41:24;6.10;99.90
37426;DHT22;23285;50.180;7.036;2022-11-20T17:46:56;6.20;99.90
37426;DHT22;23285;50.180;7.036;2022-11-20T17:49:41;6.10;99.90
37426;DHT22;23285;50.180;7.036;2022-11-20T17:52:26;6.10;99.90
37426;DHT22;23285;50.180;7.036;2022-11-20T17:55:11;6.00;99.90
37426;DHT22;23285;50.180;7.036;2022-11-20T17:57:56;6.20;99.90
37426;DHT22;23285;50.180;7.036;2022-11-20T18:00:46;6.40;99.90
37426;DHT22;23285;50.180;7.036;2022-11-20T18:06:19;6.10;99.90
37426;DHT22;23285;50.180;7.036;2022-11-20T18:09:05;6.30;99.90
37426;DHT22;23285;50.180;7.036;2022-11-20T18:11:50;6.20;99.90
37426;DHT22;23285;50.180;7.036;2022-11-20T18:17:21;6.20;99.90
37426;DHT22;23285;50.180;7.036;2022-11-20T18:20:06;6.10;99.90
37426;DHT22;23285;50.180;7.036;2022-11-20T18:25:38;6.20;99.90
37426;DHT22;23285;50.180;7.036;2022-11-20T18:31:09;6.10;99.90
37426;DHT22;23285;50.180;7.036;2022-11-20T18:33:54;6.20;99.90
37426;DHT22;23285;50.180;7.036;2022-11-20T18:39:26;6.10;99.90
37426;DHT22;23285;50.180;7.036;2022-11-20T18:42:13;6.10;99.90
37426;DHT22;23285;50.180;7.036;2022-11-20T18:48:02;6.20;99.90
37426;DHT22;23285;50.180;7.036;2022-11-20T18:50:47;6.20;99.90
37426;DHT22;23285;50.180;7.036;2022-11-20T18:53:36;6.10;99.90
37426;DHT22;23285;50.180;7.036;2022-11-20T18:56:21;6.20;99.90
37426;DHT22;23285;50.180;7.036;2022-11-20T18:59:09;6.20;99.90
37426;DHT22;23285;50.180;7.036;2022-11-20T19:04:39;6.20;99.90
37426;DHT22;23285;50.180;7.036;2022-11-20T19:07:24;6.40;99.90
37426;DHT22;23285;50.180;7.036;2022-11-20T19:15:42;6.00;99.90
37426;DHT22;23285;50.180;7.036;2022-11-20T19:18:27;6.00;99.90
37426;DHT22;23285;50.180;7.036;2022-11-20T19:21:17;5.90;99.90
37426;DHT22;23285;50.180;7.036;2022-11-20T19:24:03;6.10;99.90
37426;DHT22;23285;50.180;7.036;2022-11-20T19:26:49;5.90;99.90
37426;DHT22;23285;50.180;7.036;2022-11-20T19:29:34;5.90;99.90
37426;DHT22;23285;50.180;7.036;2022-11-20T19:32:19;6.30;99.90
37426;DHT22;23285;50.180;7.036;2022-11-20T19:35:04;6.50;99.90
37426;DHT22;23285;50.180;7.036;2022-11-20T19:37:50;6.60;99.90
37426;DHT22;23285;50.180;7.036;2022-11-20T19:40:35;6.60;99.90
37426;DHT22;23285;50.180;7.036;2022-11-20T19:43:20;6.80;99.90
37426;DHT22;23285;50.180;7.036;2022-11-20T19:46:06;6.70;99.90
37426;DHT22;23285;50.180;7.036;2022-11-20T19:48:52;6.30;99.90
37426;DHT22;23285;50.180;7.036;2022-11-20T19:51:42;6.70;99.90
37426;DHT22;23285;50.180;7.036;2022-11-20T19:54:27;6.90;99.90
37426;DHT22;23285;50.180;7.036;2022-11-20T19:59:57;7.20;99.90
37426;DHT22;23285;50.180;7.036;2022-11-20T20:05:28;6.90;99.90
37426;DHT22;23285;50.180;7.036;2022-11-20T20:10:59;7.10;99.90
37426;DHT22;23285;50.180;7.036;2022-11-20T20:13:44;7.30;99.90
37426;DHT22;23285;50.180;7.036;2022-11-20T20:16:30;7.30;99.90
37426;DHT22;23285;50.180;7.036;2022-11-20T20:22:00;7.10;99.90
37426;DHT22;23285;50.180;7.036;2022-11-20T20:24:45;6.80;99.90
37426;DHT22;23285;50.180;7.036;2022-11-20T20:27:30;7.00;99.90
37426;DHT22;23285;50.180;7.036;2022-11-20T20:30:16;6.90;99.90
37426;DHT22;23285;50.180;7.036;2022-11-20T20:33:01;6.70;99.90
37426;DHT22;23285;50.180;7.036;2022-11-20T20:38:32;6.90;99.90
37426;DHT22;23285;50.180;7.036;2022-11-20T20:41:21;6.90;99.90
37426;DHT22;23285;50.180;7.036;2022-11-20T20:44:07;6.20;99.90
37426;DHT22;23285;50.180;7.036;2022-11-20T20:49:56;4.90;99.90
37426;DHT22;23285;50.180;7.036;2022-11-20T20:52:41;4.70;99.90
37426;DHT22;23285;50.180;7.036;2022-11-20T20:55:26;4.70;99.90
37426;DHT22;23285;50.180;7.036;2022-11-20T20:58:11;4.80;99.90
37426;DHT22;23285;50.180;7.036;2022-11-20T21:01:07;5.00;99.90
37426;DHT22;23285;50.180;7.036;2022-11-20T21:03:53;5.10;99.90
37426;DHT22;23285;50.180;7.036;2022-11-20T21:06:39;5.00;99.90
37426;DHT22;23285;50.180;7.036;2022-11-20T21:09:24;5.20;99.90
37426;DHT22;23285;50.180;7.036;2022-11-20T21:12:09;5.00;99.90
37426;DHT22;23285;50.180;7.036;2022-11-20T21:14:54;5.00;99.90
37426;DHT22;23285;50.180;7.036;2022-11-20T21:17:40;5.10;99.90
37426;DHT22;23285;50.180;7.036;2022-11-20T21:20:28;5.20;99.90
37426;DHT22;23285;50.180;7.036;2022-11-20T21:23:32;5.30;99.90
37426;DHT22;23285;50.180;7.036;2022-11-20T21:26:27;5.40;99.90
37426;DHT22;23285;50.180;7.036;2022-11-20T21:29:12;5.30;99.90
37426;DHT22;23285;50.180;7.036;2022-11-20T21:37:28;5.50;99.90
37426;DHT22;23285;50.180;7.036;2022-11-20T21:42:59;5.50;99.90
37426;DHT22;23285;50.180;7.036;2022-11-20T21:51:20;5.40;99.90
37426;DHT22;23285;50.180;7.036;2022-11-20T21:56:50;5.30;99.90
37426;DHT22;23285;50.180;7.036;2022-11-20T21:59:36;5.30;99.90
37426;DHT22;23285;50.180;7.036;2022-11-20T22:02:21;5.30;99.90
37426;DHT22;23285;50.180;7.036;2022-11-20T22:05:07;5.30;99.90
37426;DHT22;23285;50.180;7.036;2022-11-20T22:07:51;5.50;99.90
37426;DHT22;23285;50.180;7.036;2022-11-20T22:10:37;5.40;99.90
37426;DHT22;23285;50.180;7.036;2022-11-20T22:16:26;5.60;99.90
37426;DHT22;23285;50.180;7.036;2022-11-20T22:19:14;5.70;99.90
37426;DHT22;23285;50.180;7.036;2022-11-20T22:21:59;5.80;99.90
37426;DHT22;23285;50.180;7.036;2022-11-20T22:24:44;5.50;99.90
37426;DHT22;23285;50.180;7.036;2022-11-20T22:27:29;5.60;99.90
37426;DHT22;23285;50.180;7.036;2022-11-20T22:30:14;5.50;99.90
37426;DHT22;23285;50.180;7.036;2022-11-20T22:35:44;5.90;99.90
37426;DHT22;23285;50.180;7.036;2022-11-20T22:38:30;5.70;99.90
37426;DHT22;23285;50.180;7.036;2022-11-20T22:41:24;5.60;99.90
37426;DHT22;23285;50.180;7.036;2022-11-20T22:44:14;5.60;99.90
37426;DHT22;23285;50.180;7.036;2022-11-20T22:47:00;5.70;99.90
37426;DHT22;23285;50.180;7.036;2022-11-20T22:49:45;5.70;99.90
37426;DHT22;23285;50.180;7.036;2022-11-20T22:52:30;5.60;99.90
37426;DHT22;23285;50.180;7.036;2022-11-20T22:58:00;5.90;99.90
37426;DHT22;23285;50.180;7.036;2022-11-20T23:00:45;6.20;99.90
37426;DHT22;23285;50.180;7.036;2022-11-20T23:03:30;6.20;99.90
37426;DHT22;23285;50.180;7.036;2022-11-20T23:06:16;6.00;99.90
37426;DHT22;23285;50.180;7.036;2022-11-20T23:11:51;6.00;99.90
37426;DHT22;23285;50.180;7.036;2022-11-20T23:14:36;5.80;99.90
37426;DHT22;23285;50.180;7.036;2022-11-20T23:17:21;6.10;99.90
37426;DHT22;23285;50.180;7.036;2022-11-20T23:20:07;6.20;99.90
37426;DHT22;23285;50.180;7.036;2022-11-20T23:22:53;6.10;99.90
37426;DHT22;23285;50.180;7.036;2022-11-20T23:25:37;6.10;99.90
37426;DHT22;23285;50.180;7.036;2022-11-20T23:28:22;6.30;99.90
37426;DHT22;23285;50.180;7.036;2022-11-20T23:31:08;6.30;99.90
37426;DHT22;23285;50.180;7.036;2022-11-20T23:36:39;6.40;99.90
37426;DHT22;23285;50.180;7.036;2022-11-20T23:39:24;6.40;99.90
37426;DHT22;23285;50.180;7.036;2022-11-20T23:42:09;6.60;99.90
37426;DHT22;23285;50.180;7.036;2022-11-20T23:44:54;6.80;99.90
37426;DHT22;23285;50.180;7.036;2022-11-20T23:50:24;6.80;99.90
37426;DHT22;23285;50.180;7.036;2022-11-20T23:53:10;6.80;99.90
37426;DHT22;23285;50.180;7.036;2022-11-20T23:55:58;6.90;99.90
37426;DHT22;23285;50.180;7.036;2022-11-20T23:58:44;6.90;99.90
